createdAt,value
2018-03-17T00:01:40.696Z,8.90
2018-03-17T00:04:09.032Z,8.30
2018-03-17T00:06:37.363Z,6.97
2018-03-17T00:09:06.487Z,8.03
2018-03-17T00:11:34.841Z,9.47
2018-03-17T00:14:03.269Z,7.67
2018-03-17T00:16:31.648Z,8.13
2018-03-17T00:19:00.022Z,9.17
2018-03-17T00:21:28.385Z,7.50
2018-03-17T00:23:56.772Z,7.37
2018-03-17T00:26:25.113Z,6.70
2018-03-17T00:28:54.345Z,7.30
2018-03-17T00:31:22.819Z,6.10
2018-03-17T00:33:51.148Z,5.40
2018-03-17T00:36:19.505Z,7.40
2018-03-17T00:38:47.829Z,8.30
2018-03-17T00:41:16.953Z,5.47
2018-03-17T00:43:45.325Z,6.60
2018-03-17T00:46:13.743Z,6.70
2018-03-17T00:48:42.304Z,5.13
2018-03-17T00:51:10.640Z,7.87
2018-03-17T00:53:39.010Z,7.73
2018-03-17T00:56:07.349Z,6.10
2018-03-17T00:58:35.787Z,6.47
2018-03-17T01:01:04.154Z,5.33
2018-03-17T01:03:32.496Z,7.43
2018-03-17T01:06:00.852Z,7.07
2018-03-17T01:08:29.183Z,9.60
2018-03-17T01:10:58.306Z,7.73
2018-03-17T01:13:27.424Z,7.50
2018-03-17T01:15:55.769Z,6.17
2018-03-17T01:18:24.119Z,7.93
2018-03-17T01:20:52.440Z,6.37
2018-03-17T01:23:21.560Z,7.33
2018-03-17T01:25:49.901Z,6.90
2018-03-17T01:28:18.239Z,6.87
2018-03-17T01:30:46.576Z,6.90
2018-03-17T01:33:14.921Z,6.80
2018-03-17T01:35:43.276Z,5.77
2018-03-17T01:38:11.628Z,7.20
2018-03-17T01:40:39.985Z,5.97
2018-03-17T01:43:08.512Z,7.13
2018-03-17T01:45:36.868Z,8.53
2018-03-17T01:48:05.209Z,8.23
2018-03-17T01:50:33.695Z,6.57
2018-03-17T01:53:02.115Z,6.27
2018-03-17T01:55:30.453Z,6.43
2018-03-17T01:57:58.813Z,6.17
2018-03-17T02:00:27.152Z,5.80
2018-03-17T02:02:55.528Z,7.10
2018-03-17T02:05:23.872Z,8.30
2018-03-17T02:07:52.399Z,6.27
2018-03-17T02:10:20.767Z,5.53
2018-03-17T02:12:49.150Z,6.83
2018-03-17T02:15:17.504Z,6.43
2018-03-17T02:17:46.616Z,8.23
2018-03-17T02:20:14.955Z,6.87
2018-03-17T02:22:43.317Z,7.47
2018-03-17T02:25:11.647Z,7.23
2018-03-17T02:27:39.983Z,6.70
2018-03-17T02:30:08.323Z,5.47
2018-03-17T02:32:36.683Z,6.87
2018-03-17T02:35:05.035Z,6.20
2018-03-17T02:37:33.461Z,8.53
2018-03-17T02:40:01.794Z,7.27
2018-03-17T02:42:30.126Z,7.70
2018-03-17T02:44:58.526Z,7.27
2018-03-17T02:47:26.883Z,7.37
2018-03-17T02:49:55.232Z,6.00
2018-03-17T02:52:23.728Z,8.40
2018-03-17T02:54:52.052Z,9.07
2018-03-17T02:57:20.494Z,5.97
2018-03-17T02:59:50.049Z,11.77
2018-03-17T03:02:18.490Z,4.87
2018-03-17T03:04:46.838Z,10.10
2018-03-17T03:07:16.068Z,6.47
2018-03-17T03:09:44.540Z,5.67
2018-03-17T03:12:12.929Z,7.47
2018-03-17T03:14:41.340Z,6.73
2018-03-17T03:17:09.789Z,6.10
2018-03-17T03:19:38.235Z,5.73
2018-03-17T03:22:07.325Z,6.00
2018-03-17T03:24:36.439Z,9.50
2018-03-17T03:27:04.882Z,7.00
2018-03-17T03:29:33.263Z,5.73
2018-03-17T03:32:01.707Z,7.10
2018-03-17T03:34:30.065Z,11.23
2018-03-17T03:36:58.404Z,7.67
2018-03-17T03:39:27.629Z,6.70
2018-03-17T03:41:55.993Z,5.80
2018-03-17T03:44:25.098Z,9.53
2018-03-17T03:46:53.505Z,6.37
2018-03-17T03:49:21.837Z,5.17
2018-03-17T03:51:50.159Z,6.00
2018-03-17T03:54:18.508Z,9.67
2018-03-17T03:56:47.784Z,6.80
2018-03-17T03:59:16.133Z,5.63
2018-03-17T04:01:44.489Z,4.93
2018-03-17T04:04:13.187Z,5.87
2018-03-17T04:06:41.596Z,7.07
2018-03-17T04:09:09.935Z,6.43
2018-03-17T04:11:38.269Z,7.87
2018-03-17T04:14:06.687Z,6.77
2018-03-17T04:16:35.050Z,8.57
2018-03-17T04:19:04.155Z,5.27
2018-03-17T04:21:32.506Z,10.23
2018-03-17T04:24:00.930Z,7.70
2018-03-17T04:26:29.308Z,7.53
2018-03-17T04:28:57.662Z,7.50
2018-03-17T04:31:26.743Z,8.63
2018-03-17T04:33:55.486Z,6.83
2018-03-17T04:36:23.849Z,6.87
2018-03-17T04:38:52.184Z,6.03
2018-03-17T04:41:20.563Z,7.07
2018-03-17T04:43:48.896Z,9.10
2018-03-17T04:46:17.244Z,9.40
2018-03-17T04:48:46.339Z,7.50
2018-03-17T04:51:15.773Z,6.67
2018-03-17T04:53:44.104Z,6.30
2018-03-17T04:56:12.449Z,5.53
2018-03-17T04:58:40.805Z,6.97
2018-03-17T05:01:09.147Z,6.40
2018-03-17T05:03:38.714Z,8.63
2018-03-17T05:06:07.168Z,7.70
2018-03-17T05:08:35.535Z,7.07
2018-03-17T05:11:03.927Z,7.47
2018-03-17T05:13:33.099Z,8.17
2018-03-17T05:16:02.212Z,6.67
2018-03-17T05:18:30.560Z,8.20
2018-03-17T05:20:59.668Z,9.07
2018-03-17T05:23:28.792Z,10.80
2018-03-17T05:25:57.135Z,7.33
2018-03-17T05:28:26.249Z,7.47
2018-03-17T05:30:55.467Z,8.20
2018-03-17T05:33:23.822Z,11.27
2018-03-17T05:35:52.920Z,7.53
2018-03-17T05:38:21.302Z,7.80
2018-03-17T05:40:49.623Z,7.37
2018-03-17T05:43:18.038Z,5.43
2018-03-17T05:45:46.333Z,7.57
2018-03-17T05:48:15.553Z,5.87
2018-03-17T05:50:43.931Z,6.27
2018-03-17T05:53:12.265Z,8.30
2018-03-17T05:55:40.712Z,11.17
2018-03-17T05:58:09.046Z,8.07
2018-03-17T06:00:38.161Z,8.10
2018-03-17T06:03:06.502Z,9.63
2018-03-17T06:05:34.885Z,10.00
2018-03-17T06:08:03.221Z,7.73
2018-03-17T06:10:32.184Z,16.90
2018-03-17T06:13:00.592Z,6.53
2018-03-17T06:15:28.944Z,7.87
2018-03-17T06:17:57.280Z,9.00
2018-03-17T06:20:25.624Z,6.43
2018-03-17T06:22:53.983Z,7.57
2018-03-17T06:25:22.337Z,7.37
2018-03-17T06:27:51.441Z,6.33
2018-03-17T06:30:19.839Z,11.90
2018-03-17T06:32:48.177Z,7.27
2018-03-17T06:35:16.524Z,8.00
2018-03-17T06:37:45.876Z,6.23
2018-03-17T06:40:15.006Z,7.33
2018-03-17T06:42:43.348Z,7.07
2018-03-17T06:45:12.457Z,8.53
2018-03-17T06:47:41.674Z,12.47
2018-03-17T06:50:10.043Z,7.93
2018-03-17T06:52:38.390Z,7.63
2018-03-17T06:55:06.803Z,9.33
2018-03-17T06:57:35.184Z,8.23
2018-03-17T07:00:03.564Z,11.60
2018-03-17T07:02:31.956Z,6.53
2018-03-17T07:05:00.334Z,6.83
2018-03-17T07:07:28.732Z,20.43
2018-03-17T07:09:57.100Z,9.07
2018-03-17T07:12:25.430Z,8.57
2018-03-17T07:14:53.800Z,7.83
2018-03-17T07:17:22.138Z,7.93
2018-03-17T07:19:50.472Z,6.73
2018-03-17T07:22:19.606Z,6.53
2018-03-17T07:24:47.950Z,12.30
2018-03-17T07:27:16.348Z,6.53
2018-03-17T07:29:44.694Z,8.70
2018-03-17T07:32:13.060Z,6.53
2018-03-17T07:34:41.416Z,12.47
2018-03-17T07:37:09.752Z,6.70
2018-03-17T07:39:38.865Z,9.03
2018-03-17T07:42:07.196Z,9.53
2018-03-17T07:44:35.550Z,7.33
2018-03-17T07:47:03.909Z,7.70
2018-03-17T07:49:32.285Z,7.10
2018-03-17T07:52:00.718Z,6.23
2018-03-17T07:54:29.130Z,7.33
2018-03-17T07:56:57.479Z,6.70
2018-03-17T07:59:25.857Z,5.97
2018-03-17T08:01:54.215Z,5.87
2018-03-17T08:04:22.554Z,8.87
2018-03-17T08:06:50.955Z,6.63
2018-03-17T08:09:19.282Z,15.13
2018-03-17T08:11:48.389Z,8.33
2018-03-17T08:14:17.500Z,9.17
2018-03-17T08:16:45.893Z,3.70
2018-03-17T08:19:14.242Z,12.27
2018-03-17T08:21:43.360Z,9.57
2018-03-17T08:24:11.719Z,5.47
2018-03-17T08:26:40.818Z,6.63
2018-03-17T08:29:09.916Z,7.33
2018-03-17T08:31:39.028Z,5.57
2018-03-17T08:34:07.463Z,6.93
2018-03-17T08:36:35.802Z,7.10
2018-03-17T08:39:04.335Z,6.30
2018-03-17T08:41:32.667Z,12.77
2018-03-17T08:44:01.009Z,6.67
2018-03-17T08:46:30.475Z,7.67
2018-03-17T08:48:58.805Z,7.67
2018-03-17T08:51:27.146Z,8.43
2018-03-17T08:53:55.494Z,18.37
2018-03-17T08:56:23.829Z,7.90
2018-03-17T08:58:52.991Z,5.27
2018-03-17T09:01:21.516Z,6.67
2018-03-17T09:03:50.640Z,5.70
2018-03-17T09:06:18.983Z,6.77
2018-03-17T09:08:48.120Z,7.33
2018-03-17T09:11:16.460Z,5.77
2018-03-17T09:13:45.744Z,6.27
2018-03-17T09:16:14.090Z,6.40
2018-03-17T09:18:42.458Z,6.30
2018-03-17T09:21:10.868Z,5.03
2018-03-17T09:23:39.199Z,8.47
2018-03-17T09:26:07.572Z,8.50
2018-03-17T09:28:36.774Z,9.30
2018-03-17T09:31:05.113Z,6.00
2018-03-17T09:33:34.235Z,9.00
2018-03-17T09:36:02.587Z,4.13
2018-03-17T09:38:31.018Z,5.97
2018-03-17T09:40:59.342Z,3.70
2018-03-17T09:43:27.809Z,6.63
2018-03-17T09:45:56.171Z,12.30
2018-03-17T09:48:24.534Z,7.03
2018-03-17T09:50:52.906Z,4.87
2018-03-17T09:53:21.227Z,11.47
2018-03-17T09:55:49.683Z,4.40
2018-03-17T09:58:18.044Z,7.03
2018-03-17T10:00:46.445Z,5.73
2018-03-17T10:03:14.777Z,8.73
2018-03-17T10:05:43.871Z,3.27
2018-03-17T10:08:12.981Z,5.60
2018-03-17T10:10:41.326Z,5.37
2018-03-17T10:13:09.963Z,3.67
2018-03-17T10:15:38.288Z,4.70
2018-03-17T10:18:06.822Z,4.40
2018-03-17T10:20:35.412Z,4.43
2018-03-17T10:23:03.735Z,4.30
2018-03-17T10:25:32.092Z,4.10
2018-03-17T10:28:00.421Z,4.40
2018-03-17T10:30:29.552Z,3.17
2018-03-17T10:32:58.413Z,6.07
2018-03-17T10:35:27.511Z,5.47
2018-03-17T10:37:56.717Z,5.57
2018-03-17T10:40:25.816Z,11.37
2018-03-17T10:42:54.222Z,6.23
2018-03-17T10:45:22.553Z,5.83
2018-03-17T10:47:51.694Z,3.53
2018-03-17T10:50:20.053Z,3.87
2018-03-17T10:52:48.404Z,5.00
2018-03-17T10:55:17.508Z,3.90
2018-03-17T10:57:46.778Z,4.57
2018-03-17T11:00:20.800Z,5.33
2018-03-17T11:02:52.990Z,5.23
2018-03-17T11:05:21.326Z,5.47
2018-03-17T11:07:49.653Z,7.20
2018-03-17T11:10:18.049Z,4.00
2018-03-17T11:12:46.447Z,4.23
2018-03-17T11:15:14.792Z,6.00
2018-03-17T11:17:43.180Z,5.77
2018-03-17T11:20:11.550Z,6.43
2018-03-17T11:22:39.879Z,5.77
2018-03-17T11:25:08.348Z,7.00
2018-03-17T11:27:36.755Z,4.83
2018-03-17T11:30:05.188Z,3.70
2018-03-17T11:32:33.533Z,3.00
2018-03-17T11:35:03.420Z,4.57
2018-03-17T11:37:31.773Z,3.70
2018-03-17T11:40:00.098Z,4.87
2018-03-17T11:42:28.480Z,4.37
2018-03-17T11:44:56.832Z,5.07
2018-03-17T11:47:25.185Z,4.97
2018-03-17T11:49:53.521Z,6.07
2018-03-17T11:52:22.657Z,3.50
2018-03-17T11:54:51.462Z,11.67
2018-03-17T11:57:19.954Z,5.83
2018-03-17T11:59:48.313Z,7.03
2018-03-17T12:02:16.633Z,4.20
2018-03-17T12:04:45.768Z,3.87
2018-03-17T12:07:14.098Z,6.53
2018-03-17T12:09:42.431Z,5.10
2018-03-17T12:12:10.901Z,5.87
2018-03-17T12:14:39.318Z,5.47
2018-03-17T12:17:07.681Z,9.23
2018-03-17T12:19:36.020Z,6.57
2018-03-17T12:22:04.372Z,5.20
2018-03-17T12:24:32.917Z,5.63
2018-03-17T12:27:01.289Z,7.67
2018-03-17T12:29:29.678Z,13.53
2018-03-17T12:31:58.046Z,4.73
2018-03-17T12:34:26.395Z,5.53
2018-03-17T12:36:55.525Z,6.33
2018-03-17T12:39:23.929Z,13.37
2018-03-17T12:41:52.273Z,4.97
2018-03-17T12:44:20.749Z,3.50
2018-03-17T12:46:49.873Z,4.63
2018-03-17T12:49:18.279Z,6.20
2018-03-17T12:51:47.460Z,9.03
2018-03-17T12:54:15.830Z,26.37
2018-03-17T12:56:44.204Z,42.90
2018-03-17T12:59:12.572Z,36.00
2018-03-17T13:01:41.588Z,13.63
2018-03-17T13:04:09.932Z,7.90
2018-03-17T13:06:38.286Z,4.10
2018-03-17T13:09:06.675Z,5.20
2018-03-17T13:11:35.822Z,5.93
2018-03-17T13:14:04.191Z,4.97
2018-03-17T13:16:32.540Z,3.67
2018-03-17T13:19:01.698Z,6.10
2018-03-17T13:21:30.086Z,3.70
2018-03-17T13:23:58.511Z,3.87
2018-03-17T13:26:26.898Z,4.47
2018-03-17T13:28:55.289Z,4.67
2018-03-17T13:31:23.709Z,4.83
2018-03-17T13:33:52.047Z,4.07
2018-03-17T13:36:32.358Z,9.07
2018-03-17T13:39:00.688Z,12.53
2018-03-17T13:41:29.138Z,10.53
2018-03-17T13:43:57.515Z,7.83
2018-03-17T13:46:26.669Z,6.83
2018-03-17T13:48:55.060Z,6.77
2018-03-17T13:51:23.510Z,3.97
2018-03-17T13:53:51.890Z,6.50
2018-03-17T13:56:20.218Z,7.63
2018-03-17T13:58:49.357Z,3.87
2018-03-17T14:01:17.730Z,7.43
2018-03-17T14:03:46.280Z,6.93
2018-03-17T14:06:14.626Z,12.60
2018-03-17T14:08:42.964Z,6.50
2018-03-17T14:11:11.291Z,4.77
2018-03-17T14:13:39.742Z,4.97
2018-03-17T14:16:08.126Z,5.90
2018-03-17T14:18:36.441Z,8.03
2018-03-17T14:21:05.497Z,4.13
2018-03-17T14:23:34.074Z,3.97
2018-03-17T14:26:02.405Z,14.53
2018-03-17T14:28:31.521Z,24.47
2018-03-17T14:30:59.864Z,17.60
2018-03-17T14:33:28.295Z,20.93
2018-03-17T14:35:56.647Z,18.33
2018-03-17T14:38:25.766Z,12.60
2018-03-17T14:40:54.165Z,5.57
2018-03-17T14:43:22.624Z,4.30
2018-03-17T14:45:51.181Z,6.13
2018-03-17T14:48:19.542Z,11.40
2018-03-17T14:50:47.886Z,10.10
2018-03-17T14:53:16.360Z,5.23
2018-03-17T14:55:44.713Z,4.97
2018-03-17T14:58:13.233Z,4.50
2018-03-17T15:00:41.654Z,5.17
2018-03-17T15:03:10.005Z,14.00
2018-03-17T15:05:38.438Z,11.97
2018-03-17T15:08:07.553Z,11.13
2018-03-17T15:10:35.887Z,6.30
2018-03-17T15:13:04.991Z,9.10
2018-03-17T15:15:34.096Z,8.57
2018-03-17T15:18:03.228Z,16.97
2018-03-17T15:20:31.743Z,23.67
2018-03-17T15:23:00.191Z,23.13
2018-03-17T15:25:28.656Z,22.70
2018-03-17T15:27:57.028Z,29.67
2018-03-17T15:30:25.524Z,32.80
2018-03-17T15:32:53.885Z,21.77
2018-03-17T15:35:22.244Z,15.27
2018-03-17T15:37:50.685Z,24.23
2018-03-17T15:40:19.012Z,11.70
2018-03-17T15:42:48.129Z,6.70
2018-03-17T15:45:17.466Z,4.83
2018-03-17T15:47:45.826Z,3.80
2018-03-17T15:50:14.212Z,5.70
2018-03-17T15:52:42.583Z,8.13
2018-03-17T15:55:10.976Z,8.13
2018-03-17T15:57:39.328Z,6.53
2018-03-17T16:00:07.697Z,5.60
2018-03-17T16:02:36.307Z,5.30
2018-03-17T16:05:04.648Z,5.07
2018-03-17T16:07:32.997Z,7.00
2018-03-17T16:10:01.340Z,7.00
2018-03-17T16:12:29.709Z,4.20
2018-03-17T16:14:58.039Z,6.53
2018-03-17T16:17:26.538Z,7.33
2018-03-17T16:19:54.915Z,5.80
2018-03-17T16:22:23.252Z,4.43
2018-03-17T16:24:51.658Z,4.97
2018-03-17T16:27:20.031Z,4.57
2018-03-17T16:29:48.391Z,4.70
2018-03-17T16:32:16.780Z,6.07
2018-03-17T16:34:45.234Z,7.90
2018-03-17T16:37:13.718Z,5.07
2018-03-17T16:39:42.073Z,5.63
2018-03-17T16:42:10.810Z,7.97
2018-03-17T16:44:39.135Z,5.83
2018-03-17T16:47:07.497Z,5.93
2018-03-17T16:49:35.851Z,5.57
2018-03-17T16:52:04.179Z,6.33
2018-03-17T16:54:32.532Z,5.47
2018-03-17T16:57:00.882Z,8.90
2018-03-17T16:59:29.209Z,4.07
2018-03-17T17:01:57.569Z,6.13
2018-03-17T17:04:25.918Z,4.57
2018-03-17T17:06:54.272Z,5.33
2018-03-17T17:09:22.600Z,4.53
2018-03-17T17:11:51.017Z,5.67
2018-03-17T17:14:19.356Z,7.37
2018-03-17T17:16:47.777Z,5.73
2018-03-17T17:19:16.109Z,4.57
2018-03-17T17:21:44.475Z,4.83
2018-03-17T17:24:12.840Z,4.27
2018-03-17T17:26:41.174Z,13.77
2018-03-17T17:29:09.552Z,7.00
2018-03-17T17:31:37.925Z,7.33
2018-03-17T17:34:06.306Z,5.57
2018-03-17T17:36:34.811Z,7.03
2018-03-17T17:39:03.162Z,8.80
2018-03-17T17:41:31.546Z,7.73
2018-03-17T17:43:59.920Z,8.57
2018-03-17T17:46:28.805Z,6.67
2018-03-17T17:48:57.312Z,4.77
2018-03-17T17:51:25.662Z,5.43
2018-03-17T17:53:54.046Z,6.00
2018-03-17T17:56:22.514Z,6.37
2018-03-17T17:58:50.978Z,5.20
2018-03-17T18:01:19.322Z,6.17
2018-03-17T18:03:47.694Z,5.47
2018-03-17T18:06:16.198Z,7.53
2018-03-17T18:08:44.562Z,7.17
2018-03-17T18:11:12.914Z,10.40
2018-03-17T18:13:41.337Z,6.00
2018-03-17T18:16:09.705Z,7.53
2018-03-17T18:18:38.040Z,8.37
2018-03-17T18:21:06.437Z,6.27
2018-03-17T18:23:34.835Z,7.13
2018-03-17T18:26:03.173Z,6.90
2018-03-17T18:28:31.543Z,6.43
2018-03-17T18:30:59.907Z,5.03
2018-03-17T18:33:28.414Z,4.43
2018-03-17T18:35:56.805Z,7.27
2018-03-17T18:38:25.212Z,13.40
2018-03-17T18:40:53.573Z,6.67
2018-03-17T18:43:22.041Z,7.10
2018-03-17T18:45:50.431Z,9.97
2018-03-17T18:48:18.810Z,6.43
2018-03-17T18:50:47.180Z,8.13
2018-03-17T18:53:15.552Z,7.53
2018-03-17T18:55:43.941Z,8.17
2018-03-17T18:58:12.300Z,7.67
2018-03-17T19:00:40.653Z,6.33
2018-03-17T19:03:09.078Z,9.80
2018-03-17T19:05:37.567Z,8.30
2018-03-17T19:08:05.945Z,5.73
2018-03-17T19:10:34.372Z,7.57
2018-03-17T19:13:02.740Z,7.27
2018-03-17T19:15:31.090Z,7.20
2018-03-17T19:17:59.460Z,5.77
2018-03-17T19:20:28.016Z,11.93
2018-03-17T19:22:56.442Z,8.20
2018-03-17T19:25:24.960Z,9.47
2018-03-17T19:27:54.119Z,6.90
2018-03-17T19:30:22.609Z,6.10
2018-03-17T19:32:50.985Z,8.63
2018-03-17T19:35:19.345Z,7.70
2018-03-17T19:37:47.704Z,7.80
2018-03-17T19:40:16.126Z,7.73
2018-03-17T19:42:44.473Z,6.43
2018-03-17T19:45:12.884Z,7.03
2018-03-17T19:47:41.261Z,9.27
2018-03-17T19:50:09.652Z,8.90
2018-03-17T19:52:38.048Z,8.97
2018-03-17T19:55:06.425Z,11.07
2018-03-17T19:57:34.862Z,8.13
2018-03-17T20:00:03.369Z,9.60
2018-03-17T20:02:31.752Z,9.20
2018-03-17T20:05:00.334Z,12.23
2018-03-17T20:07:28.771Z,7.67
2018-03-17T20:09:57.141Z,7.10
2018-03-17T20:12:25.511Z,22.43
2018-03-17T20:14:53.871Z,9.37
2018-03-17T20:17:22.241Z,9.47
2018-03-17T20:19:50.594Z,9.80
2018-03-17T20:22:19.036Z,7.07
2018-03-17T20:24:47.429Z,12.47
2018-03-17T20:27:16.053Z,9.23
2018-03-17T20:29:44.427Z,8.37
2018-03-17T20:32:12.899Z,10.07
2018-03-17T20:34:41.293Z,9.67
2018-03-17T20:37:09.734Z,10.63
2018-03-17T20:39:38.072Z,10.00
2018-03-17T20:42:06.596Z,7.07
2018-03-17T20:44:34.949Z,15.37
2018-03-17T20:47:03.444Z,7.43
2018-03-17T20:49:31.852Z,9.87
2018-03-17T20:52:00.211Z,14.27
2018-03-17T20:54:28.592Z,11.60
2018-03-17T20:56:56.952Z,9.20
2018-03-17T20:59:25.545Z,9.57
2018-03-17T21:01:53.926Z,8.57
2018-03-17T21:04:22.285Z,9.27
2018-03-17T21:06:50.814Z,8.07
2018-03-17T21:09:19.188Z,9.90
2018-03-17T21:11:47.560Z,7.27
2018-03-17T21:14:16.017Z,12.33
2018-03-17T21:16:44.671Z,8.00
2018-03-17T21:19:13.058Z,8.63
2018-03-17T21:21:41.437Z,9.50
2018-03-17T21:24:09.803Z,8.77
2018-03-17T21:26:38.305Z,9.13
2018-03-17T21:29:06.673Z,7.33
2018-03-17T21:31:35.022Z,8.70
2018-03-17T21:34:03.431Z,7.33
2018-03-17T21:36:32.434Z,9.17
2018-03-17T21:39:00.824Z,8.23
2018-03-17T21:41:29.240Z,6.80
2018-03-17T21:43:57.581Z,6.73
2018-03-17T21:46:25.965Z,11.67
2018-03-17T21:48:54.395Z,6.67
2018-03-17T21:51:22.825Z,5.90
2018-03-17T21:53:51.234Z,6.37
2018-03-17T21:56:19.694Z,11.10
2018-03-17T21:58:48.044Z,13.03
2018-03-17T22:01:16.528Z,10.10
2018-03-17T22:03:45.036Z,8.73
2018-03-17T22:06:13.394Z,6.73
2018-03-17T22:08:41.775Z,9.27
2018-03-17T22:11:10.133Z,6.83
2018-03-17T22:13:38.576Z,8.70
2018-03-17T22:16:06.888Z,8.20
2018-03-17T22:18:35.307Z,9.63
2018-03-17T22:21:03.677Z,12.23
2018-03-17T22:23:32.062Z,8.33
2018-03-17T22:26:00.420Z,9.20
2018-03-17T22:28:29.122Z,15.30
2018-03-17T22:30:57.472Z,8.43
2018-03-17T22:33:25.825Z,9.73
2018-03-17T22:35:54.265Z,7.93
2018-03-17T22:38:22.605Z,12.47
2018-03-17T22:40:50.975Z,8.40
2018-03-17T22:43:19.355Z,7.53
2018-03-17T22:45:47.834Z,9.93
2018-03-17T22:48:16.189Z,10.13
2018-03-17T22:50:44.579Z,11.90
2018-03-17T22:53:13.315Z,10.10
2018-03-17T22:55:41.662Z,9.40
2018-03-17T22:58:10.015Z,7.70
2018-03-17T23:00:38.665Z,11.10
2018-03-17T23:03:06.996Z,8.50
2018-03-17T23:05:35.352Z,10.87
2018-03-17T23:08:03.701Z,11.67
2018-03-17T23:10:32.062Z,9.17
2018-03-17T23:13:00.408Z,10.17
2018-03-17T23:15:28.795Z,8.67
2018-03-17T23:17:57.151Z,8.93
2018-03-17T23:20:25.525Z,9.30
2018-03-17T23:22:54.143Z,13.80
2018-03-17T23:25:22.513Z,9.83
2018-03-17T23:27:50.841Z,9.03
2018-03-17T23:30:19.205Z,9.60
2018-03-17T23:32:47.546Z,9.83
2018-03-17T23:35:15.915Z,11.93
2018-03-17T23:37:44.308Z,10.63
2018-03-17T23:40:12.676Z,10.17
2018-03-17T23:42:41.027Z,8.73
2018-03-17T23:45:09.400Z,10.20
2018-03-17T23:47:37.741Z,11.70
2018-03-17T23:50:06.117Z,13.03
2018-03-17T23:52:34.483Z,9.70
2018-03-17T23:55:02.826Z,9.43
2018-03-17T23:57:31.188Z,10.47
2018-03-17T23:59:59.540Z,10.23
